Time,TemperatureF,DewpointF,PressureIn,WindDirection,WindDirectionDegrees,WindSpeedMPH,WindSpeedGustMPH,Humidity,HourlyPrecipIn,Conditions,Clouds,dailyrainin,SolarRadiationWatts/m^2,SoftwareType,DateUTC
2013-02-08 00:21:00,27.0,27.0,-100.00,West,264,0.0,2.0,99,0.00,,,0.00,0.000000,,2013-02-08 09:21:00,
2013-02-08 00:31:00,27.0,27.0,-100.00,West,264,0.0,2.0,99,0.00,,,0.00,0.000000,,2013-02-08 09:31:00,
2013-02-08 00:42:00,27.0,27.0,-100.00,West,264,0.0,2.0,99,0.00,,,0.00,0.000000,,2013-02-08 09:42:00,
2013-02-08 00:51:00,27.0,27.0,-100.00,West,264,0.0,2.0,99,0.00,,,0.00,0.000000,,2013-02-08 09:51:00,
2013-02-08 01:22:00,27.0,27.0,-100.00,East,81,0.0,0.0,99,0.00,,,0.00,0.000000,,2013-02-08 10:22:00,
2013-02-08 01:31:00,27.0,27.0,-100.00,East,81,0.0,0.0,99,0.00,,,0.00,0.000000,,2013-02-08 10:31:00,
2013-02-08 01:41:00,27.0,27.0,-100.00,East,81,0.0,0.0,99,0.00,,,0.00,0.000000,,2013-02-08 10:41:00,
2013-02-08 01:51:00,27.0,27.0,-100.00,East,81,0.0,0.0,99,0.00,,,0.00,0.000000,,2013-02-08 10:51:00,
2013-02-08 01:52:00,27.0,27.0,-100.00,ENE,78,0.0,0.0,99,0.00,,,-99.99,0.000000,,2013-02-08 10:52:00,
2013-02-08 02:21:00,27.0,27.0,-100.00,ENE,78,0.0,0.0,99,0.00,,,-99.99,0.000000,,2013-02-08 11:21:00,
2013-02-08 02:32:00,27.0,27.0,-100.00,ENE,78,0.0,0.0,99,0.00,,,-99.99,0.000000,,2013-02-08 11:32:00,
2013-02-08 02:41:00,27.0,27.0,-100.00,ENE,78,0.0,0.0,99,0.00,,,-99.99,0.000000,,2013-02-08 11:41:00,
2013-02-08 02:52:00,24.0,24.0,-100.00,East,89,0.0,0.0,98,0.00,,,0.00,0.000000,,2013-02-08 11:52:00,
2013-02-08 03:11:00,24.0,24.0,-100.00,East,89,0.0,0.0,98,0.00,,,0.00,0.000000,,2013-02-08 12:11:00,
2013-02-08 03:22:00,24.0,24.0,-100.00,East,89,0.0,0.0,98,0.00,,,0.00,0.000000,,2013-02-08 12:22:00,
2013-02-08 03:32:00,24.0,24.0,-100.00,East,89,0.0,0.0,98,0.00,,,0.00,0.000000,,2013-02-08 12:32:00,
2013-02-08 03:42:00,24.0,24.0,-100.00,East,89,0.0,0.0,98,0.00,,,0.00,0.000000,,2013-02-08 12:42:00,
2013-02-08 04:11:00,22.0,22.0,-100.00,SSW,201,0.0,0.0,98,0.00,,,0.00,0.000000,,2013-02-08 13:11:00,
2013-02-08 04:21:00,22.0,22.0,-100.00,SSW,201,0.0,0.0,98,0.00,,,0.00,0.000000,,2013-02-08 13:21:00,
2013-02-08 04:32:00,22.0,22.0,-100.00,SSW,201,0.0,0.0,98,0.00,,,0.00,0.000000,,2013-02-08 13:32:00,
2013-02-08 04:42:00,22.0,22.0,-100.00,SSW,201,0.0,0.0,98,0.00,,,0.00,0.000000,,2013-02-08 13:42:00,
2013-02-08 04:51:00,22.0,22.0,-100.00,SSW,201,0.0,0.0,98,0.00,,,0.00,0.000000,,2013-02-08 13:51:00,
2013-02-08 04:52:00,21.0,21.0,-100.00,NE,54,0.0,1.0,98,0.00,,,0.00,0.000000,,2013-02-08 13:52:00,
2013-02-08 05:11:00,21.0,21.0,-100.00,NE,54,0.0,1.0,98,0.00,,,0.00,0.000000,,2013-02-08 14:11:00,
2013-02-08 05:21:00,21.0,21.0,-100.00,NE,54,0.0,1.0,98,0.00,,,0.00,0.000000,,2013-02-08 14:21:00,
2013-02-08 05:32:00,21.0,21.0,-100.00,NE,54,0.0,1.0,98,0.00,,,0.00,0.000000,,2013-02-08 14:32:00,
2013-02-08 05:41:00,21.0,21.0,-100.00,NE,54,0.0,1.0,98,0.00,,,0.00,0.000000,,2013-02-08 14:41:00,
2013-02-08 06:11:00,21.0,21.0,-100.00,South,169,0.0,4.0,100,0.00,,,0.00,0.000000,,2013-02-08 15:11:00,
2013-02-08 06:21:00,21.0,21.0,-100.00,South,169,0.0,4.0,100,0.00,,,0.00,0.000000,,2013-02-08 15:21:00,
2013-02-08 06:32:00,21.0,21.0,-100.00,South,169,0.0,4.0,100,0.00,,,0.00,0.000000,,2013-02-08 15:32:00,
2013-02-08 06:41:00,21.0,21.0,-100.00,South,169,0.0,4.0,100,0.00,,,0.00,0.000000,,2013-02-08 15:41:00,
2013-02-08 06:51:00,21.0,21.0,-100.00,South,169,0.0,4.0,100,0.00,,,0.00,0.000000,,2013-02-08 15:51:00,
2013-02-08 07:21:00,25.0,25.0,-100.00,ESE,113,0.0,3.0,100,0.00,,,0.00,0.000000,,2013-02-08 16:21:00,
2013-02-08 07:32:00,25.0,25.0,-100.00,ESE,113,0.0,3.0,100,0.00,,,0.00,0.000000,,2013-02-08 16:32:00,
2013-02-08 07:41:00,25.0,25.0,-100.00,ESE,113,0.0,3.0,100,0.00,,,0.00,0.000000,,2013-02-08 16:41:00,
2013-02-08 07:51:00,25.0,25.0,-100.00,ESE,113,0.0,3.0,100,0.00,,,0.00,0.000000,,2013-02-08 16:51:00,
2013-02-08 07:52:00,28.0,28.0,-100.00,SSE,151,1.0,5.0,100,0.00,,,0.00,0.000000,,2013-02-08 16:52:00,
2013-02-08 08:12:00,28.0,28.0,-100.00,SSE,151,1.0,5.0,100,0.00,,,0.00,0.000000,,2013-02-08 17:12:00,
2013-02-08 08:22:00,28.0,28.0,-100.00,SSE,151,1.0,5.0,100,0.00,,,0.00,0.000000,,2013-02-08 17:22:00,
2013-02-08 08:32:00,28.0,28.0,-100.00,SSE,151,1.0,5.0,100,0.00,,,0.00,0.000000,,2013-02-08 17:32:00,
2013-02-08 08:42:00,28.0,28.0,-100.00,SSE,151,1.0,5.0,100,0.00,,,0.00,0.000000,,2013-02-08 17:42:00,
2013-02-08 08:52:00,26.0,26.0,-100.00,ESE,111,0.0,3.0,100,0.00,,,0.00,0.000000,,2013-02-08 17:52:00,
2013-02-08 09:12:00,26.0,26.0,-100.00,ESE,111,0.0,3.0,100,0.00,,,0.00,0.000000,,2013-02-08 18:12:00,
2013-02-08 09:23:00,26.0,26.0,-100.00,ESE,111,0.0,3.0,100,0.00,,,0.00,0.000000,,2013-02-08 18:23:00,
2013-02-08 09:33:00,26.0,26.0,-100.00,ESE,111,0.0,3.0,100,0.00,,,0.00,0.000000,,2013-02-08 18:33:00,
2013-02-08 09:42:00,26.0,26.0,-100.00,ESE,111,0.0,3.0,100,0.00,,,0.00,0.000000,,2013-02-08 18:42:00,
2013-02-08 09:52:00,27.0,27.0,-100.00,East,89,0.0,4.0,100,0.00,,,0.00,2.000000,,2013-02-08 18:52:00,
2013-02-08 10:22:00,27.0,27.0,-100.00,East,89,0.0,4.0,100,0.00,,,0.00,2.000000,,2013-02-08 19:22:00,
2013-02-08 10:32:00,27.0,27.0,-100.00,East,89,0.0,4.0,100,0.00,,,0.00,2.000000,,2013-02-08 19:32:00,
2013-02-08 10:42:00,27.0,27.0,-100.00,East,89,0.0,4.0,100,0.00,,,0.00,2.000000,,2013-02-08 19:42:00,
2013-02-08 10:52:00,29.0,29.0,-100.00,East,100,1.0,4.0,100,0.00,,,0.00,7.000000,,2013-02-08 19:52:00,
2013-02-08 11:11:00,29.0,29.0,-100.00,East,100,1.0,4.0,100,0.00,,,0.00,7.000000,,2013-02-08 20:11:00,
2013-02-08 11:21:00,29.0,29.0,-100.00,East,100,1.0,4.0,100,0.00,,,0.00,7.000000,,2013-02-08 20:21:00,
2013-02-08 11:31:00,29.0,29.0,-100.00,East,100,1.0,4.0,100,0.00,,,0.00,7.000000,,2013-02-08 20:31:00,
2013-02-08 11:41:00,29.0,29.0,-100.00,East,100,1.0,4.0,100,0.00,,,0.00,7.000000,,2013-02-08 20:41:00,
2013-02-08 11:52:00,32.0,32.0,-100.00,East,91,0.0,6.0,98,0.00,,,0.00,14.000000,,2013-02-08 20:52:00,
2013-02-08 12:11:00,32.0,32.0,-100.00,East,91,0.0,6.0,98,0.00,,,0.00,14.000000,,2013-02-08 21:11:00,
2013-02-08 12:21:00,32.0,32.0,-100.00,East,91,0.0,6.0,98,0.00,,,0.00,14.000000,,2013-02-08 21:21:00,
2013-02-08 12:32:00,32.0,32.0,-100.00,East,91,0.0,6.0,98,0.00,,,0.00,14.000000,,2013-02-08 21:32:00,
2013-02-08 12:41:00,32.0,32.0,-100.00,East,91,0.0,6.0,98,0.00,,,0.00,14.000000,,2013-02-08 21:41:00,
2013-02-08 13:11:00,34.0,33.0,-100.00,ENE,67,0.0,3.0,96,0.00,,,0.00,18.000000,,2013-02-08 22:11:00,
2013-02-08 13:21:00,34.0,33.0,-100.00,ENE,67,0.0,3.0,96,0.00,,,0.00,18.000000,,2013-02-08 22:21:00,
2013-02-08 13:31:00,34.0,33.0,-100.00,ENE,67,0.0,3.0,96,0.00,,,0.00,18.000000,,2013-02-08 22:31:00,
2013-02-08 13:41:00,34.0,33.0,-100.00,ENE,67,0.0,3.0,96,0.00,,,0.00,18.000000,,2013-02-08 22:41:00,
2013-02-08 13:51:00,34.0,33.0,-100.00,ENE,67,0.0,3.0,96,0.00,,,0.00,18.000000,,2013-02-08 22:51:00,
2013-02-08 13:52:00,34.0,33.0,-100.00,SSE,155,0.0,2.0,96,0.00,,,0.00,15.000000,,2013-02-08 22:52:00,
2013-02-08 14:11:00,34.0,33.0,-100.00,SSE,155,0.0,2.0,96,0.00,,,0.00,15.000000,,2013-02-08 23:11:00,
2013-02-08 14:21:00,34.0,33.0,-100.00,SSE,155,0.0,2.0,96,0.00,,,0.00,15.000000,,2013-02-08 23:21:00,
2013-02-08 14:31:00,34.0,33.0,-100.00,SSE,155,0.0,2.0,96,0.00,,,0.00,15.000000,,2013-02-08 23:31:00,
2013-02-08 14:41:00,34.0,33.0,-100.00,SSE,155,0.0,2.0,96,0.00,,,0.00,15.000000,,2013-02-08 23:41:00,
2013-02-08 15:11:00,34.0,33.0,-100.00,West,274,0.0,3.0,96,0.00,,,0.00,10.000000,,2013-02-09 00:11:00,
2013-02-08 15:21:00,34.0,33.0,-100.00,West,274,0.0,3.0,96,0.00,,,0.00,10.000000,,2013-02-09 00:21:00,
2013-02-08 15:32:00,34.0,33.0,-100.00,West,274,0.0,3.0,96,0.00,,,0.00,10.000000,,2013-02-09 00:32:00,
2013-02-08 15:41:00,34.0,33.0,-100.00,West,274,0.0,3.0,96,0.00,,,0.00,10.000000,,2013-02-09 00:41:00,
2013-02-08 15:51:00,34.0,33.0,-100.00,West,274,0.0,3.0,96,0.00,,,0.00,10.000000,,2013-02-09 00:51:00,
2013-02-08 15:52:00,34.0,33.0,-100.00,NNE,13,0.0,1.0,95,0.00,,,0.00,11.000000,,2013-02-09 00:52:00,
2013-02-08 16:11:00,34.0,33.0,-100.00,NNE,13,0.0,1.0,95,0.00,,,0.00,11.000000,,2013-02-09 01:11:00,
2013-02-08 16:21:00,34.0,33.0,-100.00,NNE,13,0.0,1.0,95,0.00,,,0.00,11.000000,,2013-02-09 01:21:00,
2013-02-08 16:31:00,34.0,33.0,-100.00,NNE,13,0.0,1.0,95,0.00,,,0.00,11.000000,,2013-02-09 01:31:00,
2013-02-08 16:41:00,34.0,33.0,-100.00,NNE,13,0.0,1.0,95,0.00,,,0.00,11.000000,,2013-02-09 01:41:00,
2013-02-08 16:52:00,33.0,32.0,-100.00,NNW,339,0.0,2.0,97,0.00,,,0.00,7.000000,,2013-02-09 01:52:00,
2013-02-08 17:21:00,33.0,32.0,-100.00,NNW,339,0.0,2.0,97,0.00,,,0.00,7.000000,,2013-02-09 02:21:00,
2013-02-08 17:32:00,33.0,32.0,-100.00,NNW,339,0.0,2.0,97,0.00,,,0.00,7.000000,,2013-02-09 02:32:00,
2013-02-08 17:41:00,33.0,32.0,-100.00,NNW,339,0.0,2.0,97,0.00,,,0.00,7.000000,,2013-02-09 02:41:00,
2013-02-08 18:11:00,32.0,32.0,-100.00,SSW,205,0.0,1.0,99,0.00,,,0.00,2.000000,,2013-02-09 03:11:00,
2013-02-08 18:21:00,32.0,32.0,-100.00,SSW,205,0.0,1.0,99,0.00,,,0.00,2.000000,,2013-02-09 03:21:00,
2013-02-08 18:32:00,32.0,32.0,-100.00,SSW,205,0.0,1.0,99,0.00,,,0.00,2.000000,,2013-02-09 03:32:00,
2013-02-08 18:41:00,32.0,32.0,-100.00,SSW,205,0.0,1.0,99,0.00,,,0.00,2.000000,,2013-02-09 03:41:00,
2013-02-08 18:51:00,32.0,32.0,-100.00,SSW,205,0.0,1.0,99,0.00,,,0.00,2.000000,,2013-02-09 03:51:00,
2013-02-08 19:22:00,31.0,31.0,-100.00,NW,316,0.0,0.0,99,0.00,,,0.00,0.000000,,2013-02-09 04:22:00,
2013-02-08 19:32:00,31.0,31.0,-100.00,NW,316,0.0,0.0,99,0.00,,,0.00,0.000000,,2013-02-09 04:32:00,
2013-02-08 19:42:00,31.0,31.0,-100.00,NW,316,0.0,0.0,99,0.00,,,0.00,0.000000,,2013-02-09 04:42:00,
2013-02-08 19:51:00,31.0,31.0,-100.00,NW,316,0.0,0.0,99,0.00,,,0.00,0.000000,,2013-02-09 04:51:00,
2013-02-08 19:52:00,30.0,30.0,-100.00,North,357,0.0,1.0,100,0.00,,,0.00,0.000000,,2013-02-09 04:52:00,
2013-02-08 20:22:00,30.0,30.0,-100.00,North,357,0.0,1.0,100,0.00,,,0.00,0.000000,,2013-02-09 05:22:00,
2013-02-08 20:31:00,30.0,30.0,-100.00,North,357,0.0,1.0,100,0.00,,,0.00,0.000000,,2013-02-09 05:31:00,
2013-02-08 20:41:00,30.0,30.0,-100.00,North,357,0.0,1.0,100,0.00,,,0.00,0.000000,,2013-02-09 05:41:00,
2013-02-08 21:11:00,29.0,29.0,-100.00,WNW,299,0.0,2.0,100,0.00,,,0.00,0.000000,,2013-02-09 06:11:00,
2013-02-08 21:21:00,29.0,29.0,-100.00,WNW,299,0.0,2.0,100,0.00,,,0.00,0.000000,,2013-02-09 06:21:00,
2013-02-08 21:31:00,29.0,29.0,-100.00,WNW,299,0.0,2.0,100,0.00,,,0.00,0.000000,,2013-02-09 06:31:00,
2013-02-08 21:41:00,29.0,29.0,-100.00,WNW,299,0.0,2.0,100,0.00,,,0.00,0.000000,,2013-02-09 06:41:00,
2013-02-08 21:51:00,29.0,29.0,-100.00,WNW,299,0.0,2.0,100,0.00,,,0.00,0.000000,,2013-02-09 06:51:00,
2013-02-08 22:11:00,29.0,29.0,-100.00,West,281,0.0,1.0,100,0.00,,,0.00,0.000000,,2013-02-09 07:11:00,
2013-02-08 22:21:00,29.0,29.0,-100.00,West,281,0.0,1.0,100,0.00,,,0.00,0.000000,,2013-02-09 07:21:00,
2013-02-08 22:31:00,29.0,29.0,-100.00,West,281,0.0,1.0,100,0.00,,,0.00,0.000000,,2013-02-09 07:31:00,
2013-02-08 22:42:00,29.0,29.0,-100.00,West,281,0.0,1.0,100,0.00,,,0.00,0.000000,,2013-02-09 07:42:00,
2013-02-08 22:51:00,29.0,29.0,-100.00,West,281,0.0,1.0,100,0.00,,,0.00,0.000000,,2013-02-09 07:51:00,
2013-02-08 23:11:00,28.0,28.0,-100.00,NNW,343,1.0,4.0,100,0.00,,,0.00,0.000000,,2013-02-09 08:11:00,
2013-02-08 23:21:00,28.0,28.0,-100.00,NNW,343,1.0,4.0,100,0.00,,,0.00,0.000000,,2013-02-09 08:21:00,
2013-02-08 23:31:00,28.0,28.0,-100.00,NNW,343,1.0,4.0,100,0.00,,,0.00,0.000000,,2013-02-09 08:31:00,
2013-02-08 23:41:00,28.0,28.0,-100.00,NNW,343,1.0,4.0,100,0.00,,,0.00,0.000000,,2013-02-09 08:41:00,
2013-02-08 23:51:00,28.0,28.0,-100.00,NNW,343,1.0,4.0,100,0.00,,,0.00,0.000000,,2013-02-09 08:51:00,